Time;durP1;ratioP1;P1;durP2;ratioP2;P2;SDS_P1;SDS_P2;PMS_P1;PMS_P2;Temp;Humidity;BMP_temperature;BMP_pressure;BME280_temperature;BME280_humidity;BME280_pressure;Samples;Min_cycle;Max_cycle;Signal;HPM_P1;HPM_P2
2021/12/12 00:00:31;;;;;;;17.30;10.13;;;;;;;;;;5014791;28;20085;-81
2021/12/12 00:03:01;;;;;;;16.40;9.05;;;;;;;;;;5013859;28;20065;-80
2021/12/12 00:05:33;;;;;;;17.40;9.07;;;;;;;;;;5017928;28;20022;-80
2021/12/12 00:07:59;;;;;;;15.18;9.00;;;;;;;;;;5003052;28;20018;-81
2021/12/12 00:10:27;;;;;;;15.85;9.50;;;;;;;;;;5001113;28;20025;-80
2021/12/12 00:12:55;;;;;;;14.43;9.18;;;;;;;;;;5015664;28;20156;-80
2021/12/12 00:15:22;;;;;;;17.45;10.68;;;;;;;;;;5015611;28;20030;-80
2021/12/12 00:17:49;;;;;;;17.27;9.75;;;;;;;;;;4997551;28;20029;-80
2021/12/12 00:20:17;;;;;;;20.08;10.63;;;;;;;;;;5016567;28;20026;-80
2021/12/12 00:22:43;;;;;;;17.20;9.80;;;;;;;;;;5015816;28;20081;-80
2021/12/12 00:25:10;;;;;;;16.10;9.15;;;;;;;;;;5016641;28;20503;-80
2021/12/12 00:27:37;;;;;;;20.58;10.60;;;;;;;;;;5014849;28;20034;-80
2021/12/12 00:30:04;;;;;;;17.52;9.52;;;;;;;;;;5001507;28;21414;-81
2021/12/12 00:32:32;;;;;;;17.27;9.90;;;;;;;;;;5017522;28;20022;-81
2021/12/12 00:35:00;;;;;;;14.98;9.13;;;;;;;;;;5009597;28;20029;-80
2021/12/12 00:37:27;;;;;;;18.20;10.00;;;;;;;;;;5016233;28;20108;-80
2021/12/12 00:39:55;;;;;;;15.18;8.65;;;;;;;;;;4998067;28;20089;-80
2021/12/12 00:42:23;;;;;;;20.25;9.98;;;;;;;;;;4998516;28;20034;-81
2021/12/12 00:44:52;;;;;;;16.90;9.70;;;;;;;;;;5015284;28;20116;-80
2021/12/12 00:47:21;;;;;;;14.80;9.05;;;;;;;;;;5015920;28;20148;-80
2021/12/12 00:49:47;;;;;;;16.55;9.73;;;;;;;;;;5015598;28;20104;-80
2021/12/12 00:52:15;;;;;;;18.63;9.70;;;;;;;;;;5015812;28;20026;-80
2021/12/12 00:54:41;;;;;;;17.85;9.48;;;;;;;;;;4998607;28;20396;-80
2021/12/12 00:57:09;;;;;;;15.80;9.20;;;;;;;;;;5016578;28;20034;-80
2021/12/12 00:59:36;;;;;;;17.70;9.85;;;;;;;;;;4998460;28;20396;-80
2021/12/12 01:02:04;;;;;;;16.30;9.45;;;;;;;;;;4997973;28;20032;-81
2021/12/12 01:04:33;;;;;;;15.60;9.13;;;;;;;;;;5015527;28;20026;-79
2021/12/12 01:07:00;;;;;;;15.07;9.00;;;;;;;;;;5015701;28;20072;-81
2021/12/12 01:09:29;;;;;;;14.43;9.02;;;;;;;;;;5015769;28;20704;-80
2021/12/12 01:11:59;;;;;;;14.68;9.13;;;;;;;;;;5015301;28;20469;-80
2021/12/12 01:14:27;;;;;;;15.15;8.88;;;;;;;;;;5016336;28;20029;-79
2021/12/12 01:16:56;;;;;;;13.77;8.65;;;;;;;;;;5016293;28;20022;-82
2021/12/12 01:19:24;;;;;;;14.57;8.65;;;;;;;;;;4998760;28;20061;-80
2021/12/12 01:21:53;;;;;;;15.27;7.72;;;;;;;;;;5015956;28;20144;-80
2021/12/12 01:24:24;;;;;;;14.18;8.15;;;;;;;;;;4997703;28;20026;-81
2021/12/12 01:26:50;;;;;;;13.55;7.53;;;;;;;;;;4998383;28;20017;-81
2021/12/12 01:29:16;;;;;;;13.00;7.30;;;;;;;;;;4998179;28;20041;-80
2021/12/12 01:31:48;;;;;;;13.82;7.78;;;;;;;;;;5015800;28;20029;-80
2021/12/12 01:34:16;;;;;;;12.40;7.03;;;;;;;;;;5015464;28;20106;-80
2021/12/12 01:37:04;;;;;;;14.65;7.38;;;;;;;;;;5015433;28;20090;-80
2021/12/12 01:39:36;;;;;;;13.50;7.53;;;;;;;;;;4998237;28;20053;-80
2021/12/12 01:42:04;;;;;;;14.13;6.78;;;;;;;;;;5015467;28;20056;-80
2021/12/12 01:44:35;;;;;;;13.40;7.00;;;;;;;;;;5015742;28;20041;-80
2021/12/12 01:47:04;;;;;;;9.20;5.25;;;;;;;;;;4997961;28;20046;-81
2021/12/12 01:49:32;;;;;;;11.07;6.85;;;;;;;;;;4978447;28;20121;-81
2021/12/12 01:51:59;;;;;;;10.35;6.25;;;;;;;;;;4979366;28;20014;-80
2021/12/12 01:54:30;;;;;;;11.77;6.93;;;;;;;;;;5005446;28;20532;-80
2021/12/12 01:56:59;;;;;;;11.75;6.25;;;;;;;;;;4997710;28;20143;-80
2021/12/12 01:59:27;;;;;;;9.32;5.45;;;;;;;;;;5015481;28;20389;-80
2021/12/12 02:01:55;;;;;;;9.73;5.90;;;;;;;;;;4998388;28;20030;-81
2021/12/12 02:04:23;;;;;;;13.10;6.85;;;;;;;;;;5014606;28;20518;-81
2021/12/12 02:06:51;;;;;;;8.23;5.40;;;;;;;;;;4998083;28;20030;-82
2021/12/12 02:09:17;;;;;;;10.50;5.70;;;;;;;;;;4997848;28;20033;-81
2021/12/12 02:11:45;;;;;;;10.68;5.95;;;;;;;;;;5015194;28;20030;-81
2021/12/12 02:14:13;;;;;;;8.88;4.72;;;;;;;;;;5015261;28;20014;-82
2021/12/12 02:16:41;;;;;;;10.70;5.47;;;;;;;;;;4997766;28;20022;-81
2021/12/12 02:19:08;;;;;;;9.35;5.47;;;;;;;;;;5015988;28;20018;-81
2021/12/12 02:22:10;;;;;;;10.48;5.82;;;;;;;;;;5015293;28;20018;-80
2021/12/12 02:35:45;;;;;;;16.40;8.32;;;;;;;;;;4996031;28;20046;-81
2021/12/12 02:38:19;;;;;;;15.73;8.85;;;;;;;;;;4978527;28;20050;-81
2021/12/12 02:40:56;;;;;;;15.63;9.05;;;;;;;;;;5008892;28;20110;-82
2021/12/12 02:43:24;;;;;;;14.85;9.48;;;;;;;;;;4992358;28;20444;-83
2021/12/12 02:45:54;;;;;;;18.65;9.57;;;;;;;;;;4996853;28;20113;-81
2021/12/12 02:48:21;;;;;;;16.02;9.25;;;;;;;;;;5001565;28;20476;-80
2021/12/12 02:50:51;;;;;;;15.35;9.20;;;;;;;;;;5018669;28;20026;-82
2021/12/12 02:53:21;;;;;;;16.50;10.15;;;;;;;;;;5018919;28;20058;-80
2021/12/12 02:55:49;;;;;;;15.77;9.45;;;;;;;;;;5000975;28;20120;-80
2021/12/12 02:58:16;;;;;;;17.65;10.00;;;;;;;;;;5000937;28;20113;-81
2021/12/12 03:00:47;;;;;;;16.38;9.93;;;;;;;;;;5018189;28;20712;-81
2021/12/12 03:03:13;;;;;;;15.20;9.80;;;;;;;;;;5001204;28;20030;-81
2021/12/12 03:05:42;;;;;;;15.75;10.00;;;;;;;;;;5018150;28;20033;-80
2021/12/12 03:08:09;;;;;;;19.42;10.63;;;;;;;;;;5001586;28;20033;-81
2021/12/12 03:10:37;;;;;;;17.92;9.15;;;;;;;;;;5001019;28;20100;-81
2021/12/12 03:13:04;;;;;;;17.30;9.95;;;;;;;;;;5018744;28;20026;-81
2021/12/12 03:15:34;;;;;;;17.88;9.52;;;;;;;;;;5000201;28;20030;-81
2021/12/12 03:21:14;;;;;;;13.45;8.25;;;;;;;;;;5019040;28;20029;-81
2021/12/12 03:23:40;;;;;;;13.52;8.25;;;;;;;;;;5000670;28;20030;-81
2021/12/12 03:26:09;;;;;;;15.13;8.68;;;;;;;;;;4999755;28;20400;-81
2021/12/12 03:28:36;;;;;;;14.80;7.57;;;;;;;;;;4999839;28;20018;-80
2021/12/12 03:31:05;;;;;;;15.07;8.38;;;;;;;;;;5000115;28;20022;-81
2021/12/12 03:36:35;;;;;;;14.73;8.27;;;;;;;;;;5017758;28;20506;-81
2021/12/12 03:39:05;;;;;;;11.20;6.90;;;;;;;;;;4996237;28;20077;-81
2021/12/12 03:41:32;;;;;;;11.48;6.97;;;;;;;;;;4996349;28;20404;-81
2021/12/12 03:44:03;;;;;;;13.48;7.53;;;;;;;;;;4997480;28;20022;-80
2021/12/12 03:46:29;;;;;;;10.23;6.32;;;;;;;;;;4997200;28;20077;-80
2021/12/12 03:48:56;;;;;;;12.43;6.82;;;;;;;;;;4997320;28;20073;-81
2021/12/12 03:54:25;;;;;;;;;;;;;;;;;;4979240;28;20058;-80
2021/12/12 03:56:51;;;;;;;10.43;5.72;;;;;;;;;;4996320;28;19913;-80
2021/12/12 03:59:17;;;;;;;12.63;6.68;;;;;;;;;;4996307;28;20057;-81
2021/12/12 04:01:47;;;;;;;11.30;6.38;;;;;;;;;;4996691;28;20084;-80
2021/12/12 04:04:16;;;;;;;13.23;7.22;;;;;;;;;;4995812;28;20042;-81
2021/12/12 04:06:42;;;;;;;12.52;7.45;;;;;;;;;;4997956;28;20091;-81
2021/12/12 04:09:10;;;;;;;11.73;6.93;;;;;;;;;;4995955;28;20404;-81
2021/12/12 04:11:37;;;;;;;12.63;7.00;;;;;;;;;;4997382;28;20026;-81
2021/12/12 04:14:04;;;;;;;12.85;7.13;;;;;;;;;;4997205;28;20097;-82
2021/12/12 04:16:32;;;;;;;13.30;7.47;;;;;;;;;;4996247;28;20057;-81
2021/12/12 04:18:59;;;;;;;12.20;6.90;;;;;;;;;;4996495;28;20460;-81
2021/12/12 04:21:28;;;;;;;11.90;7.43;;;;;;;;;;4996033;28;20121;-81
2021/12/12 04:23:55;;;;;;;11.23;7.18;;;;;;;;;;4995074;28;20113;-82
2021/12/12 04:26:23;;;;;;;12.40;7.25;;;;;;;;;;4995148;28;20054;-82
2021/12/12 04:28:55;;;;;;;11.63;7.53;;;;;;;;;;4995948;28;20133;-81
2021/12/12 04:31:24;;;;;;;12.23;7.60;;;;;;;;;;4996236;28;20027;-81
2021/12/12 04:33:52;;;;;;;12.88;7.07;;;;;;;;;;4996507;28;20122;-82
2021/12/12 04:36:18;;;;;;;10.50;6.10;;;;;;;;;;4997156;28;20038;-82
2021/12/12 04:41:49;;;;;;;12.45;6.35;;;;;;;;;;5018601;28;20470;-82
2021/12/12 04:44:22;;;;;;;11.02;6.43;;;;;;;;;;5019285;28;20084;-82
2021/12/12 04:49:55;;;;;;;10.90;6.47;;;;;;;;;;5018706;28;20103;-82
2021/12/12 04:52:26;;;;;;;13.07;7.40;;;;;;;;;;5000660;28;20026;-81
2021/12/12 04:54:58;;;;;;;12.10;6.85;;;;;;;;;;5000142;28;20021;-82
2021/12/12 04:57:30;;;;;;;14.73;8.55;;;;;;;;;;5016080;28;20499;-82
2021/12/12 05:03:03;;;;;;;11.85;7.25;;;;;;;;;;5016325;28;20029;-82
2021/12/12 05:05:30;;;;;;;11.00;6.50;;;;;;;;;;5016628;28;20037;-81
2021/12/12 05:08:05;;;;;;;12.88;7.05;;;;;;;;;;4998400;28;20071;-82
2021/12/12 05:10:47;;;;;;;11.60;6.80;;;;;;;;;;4998711;28;20025;-82
2021/12/12 05:13:31;;;;;;;11.43;6.88;;;;;;;;;;5016012;28;20092;-80
2021/12/12 05:16:02;;;;;;;12.52;6.90;;;;;;;;;;4998831;28;20488;-81
2021/12/12 05:18:30;;;;;;;13.60;7.75;;;;;;;;;;5015894;28;20331;-81
2021/12/12 05:20:59;;;;;;;10.15;6.53;;;;;;;;;;5016043;28;20438;-81
2021/12/12 05:23:26;;;;;;;12.20;7.28;;;;;;;;;;4998338;28;20480;-82
2021/12/12 05:25:57;;;;;;;12.23;6.70;;;;;;;;;;4999229;28;20026;-82
2021/12/12 05:28:27;;;;;;;11.25;6.45;;;;;;;;;;4997580;28;20029;-81
2021/12/12 05:30:53;;;;;;;11.07;7.22;;;;;;;;;;5016647;28;20014;-81
2021/12/12 05:33:19;;;;;;;13.55;6.60;;;;;;;;;;4999790;28;20380;-81
2021/12/12 05:35:45;;;;;;;11.38;6.97;;;;;;;;;;5016001;28;20040;-82
2021/12/12 05:38:22;;;;;;;11.65;6.75;;;;;;;;;;5016491;28;20231;-82
2021/12/12 05:46:56;;;;;;;11.13;6.22;;;;;;;;;;5012542;28;20053;-81
2021/12/12 05:49:22;;;;;;;11.00;6.30;;;;;;;;;;5007659;28;20530;-81
2021/12/12 05:51:48;;;;;;;10.13;5.97;;;;;;;;;;4996395;28;20026;-82
2021/12/12 05:54:14;;;;;;;11.52;6.30;;;;;;;;;;4996830;28;20021;-82
2021/12/12 05:56:40;;;;;;;11.48;7.03;;;;;;;;;;5015016;28;20049;-82
2021/12/12 05:59:09;;;;;;;11.18;6.57;;;;;;;;;;5013475;28;20037;-82
2021/12/12 06:04:38;;;;;;;10.68;6.32;;;;;;;;;;5013765;28;20087;-82
2021/12/12 06:07:07;;;;;;;10.85;5.93;;;;;;;;;;4996520;28;20034;-82
2021/12/12 06:09:33;;;;;;;10.10;6.30;;;;;;;;;;5013773;28;20419;-82
2021/12/12 06:12:05;;;;;;;11.70;6.22;;;;;;;;;;5015410;28;20060;-81
2021/12/12 06:14:32;;;;;;;10.77;6.50;;;;;;;;;;4997425;28;20021;-82
2021/12/12 06:20:01;;;;;;;;;;;;;;;;;;5013897;28;20032;-83
2021/12/12 06:25:50;;;;;;;11.48;6.25;;;;;;;;;;5014977;28;20173;-82
2021/12/12 06:28:24;;;;;;;12.75;6.78;;;;;;;;;;4997337;28;20026;-81
2021/12/12 06:33:55;;;;;;;11.05;6.03;;;;;;;;;;5003070;28;20036;-82
2021/12/12 06:36:21;;;;;;;11.95;6.13;;;;;;;;;;5003675;28;20029;-81
2021/12/12 06:38:50;;;;;;;10.68;6.07;;;;;;;;;;4994885;28;20049;-81
2021/12/12 06:41:17;;;;;;;10.73;5.75;;;;;;;;;;4996174;28;20050;-82
2021/12/12 06:43:43;;;;;;;11.30;5.60;;;;;;;;;;4999458;28;20026;-83
2021/12/12 06:46:10;;;;;;;12.43;6.00;;;;;;;;;;5012504;28;20044;-81
2021/12/12 06:48:38;;;;;;;9.82;5.47;;;;;;;;;;4993356;28;20033;-81
2021/12/12 06:51:04;;;;;;;9.80;5.57;;;;;;;;;;4995557;28;20027;-82
2021/12/12 06:53:32;;;;;;;10.60;5.97;;;;;;;;;;4995064;28;20037;-82
2021/12/12 06:59:03;;;;;;;9.55;4.88;;;;;;;;;;4993335;28;20072;-82
2021/12/12 07:01:31;;;;;;;11.73;5.38;;;;;;;;;;4995119;28;20045;-81
2021/12/12 07:03:58;;;;;;;9.40;5.60;;;;;;;;;;4993497;28;20125;-81
2021/12/12 07:06:26;;;;;;;10.50;5.85;;;;;;;;;;4995037;28;20034;-82
2021/12/12 07:08:52;;;;;;;12.55;6.38;;;;;;;;;;4993206;28;20094;-82
2021/12/12 07:11:20;;;;;;;8.75;5.65;;;;;;;;;;4992533;28;20572;-82
2021/12/12 07:22:39;;;;;;;10.30;5.38;;;;;;;;;;4995872;28;20044;-82
2021/12/12 07:25:06;;;;;;;10.45;5.95;;;;;;;;;;4994749;28;20030;-83
2021/12/12 07:27:42;;;;;;;9.65;5.55;;;;;;;;;;4994896;28;20023;-82
2021/12/12 07:42:23;;;;;;;11.38;6.50;;;;;;;;;;4161885;28;20115;-81
2021/12/12 07:44:49;;;;;;;12.02;6.53;;;;;;;;;;5047249;28;20033;-80
2021/12/12 07:47:16;;;;;;;10.85;6.72;;;;;;;;;;5034898;28;20125;-82
2021/12/12 07:49:44;;;;;;;9.93;5.85;;;;;;;;;;5039092;28;20026;-81
2021/12/12 07:52:12;;;;;;;10.80;6.10;;;;;;;;;;5040155;28;20619;-80
2021/12/12 08:00:27;;;;;;;10.80;6.32;;;;;;;;;;5025233;28;20048;-81
2021/12/12 08:05:59;;;;;;;9.52;5.65;;;;;;;;;;5038690;28;20064;-81
2021/12/12 08:14:50;;;;;;;10.70;5.82;;;;;;;;;;5022674;28;20037;-81
2021/12/12 08:20:19;;;;;;;13.95;7.63;;;;;;;;;;5021270;28;20048;-80
2021/12/12 08:22:47;;;;;;;12.68;7.22;;;;;;;;;;5021493;28;20071;-81
2021/12/12 08:25:13;;;;;;;12.18;7.40;;;;;;;;;;5020972;28;20038;-81
2021/12/12 08:27:40;;;;;;;13.77;7.65;;;;;;;;;;5003912;28;20030;-81
2021/12/12 08:30:06;;;;;;;12.60;7.45;;;;;;;;;;5005349;28;20084;-80
2021/12/12 08:32:33;;;;;;;16.67;8.73;;;;;;;;;;5004132;28;20090;-81
2021/12/12 08:34:59;;;;;;;15.27;7.95;;;;;;;;;;5003437;28;20034;-80
2021/12/12 08:37:29;;;;;;;17.48;7.75;;;;;;;;;;5003201;28;20034;-81
2021/12/12 08:39:55;;;;;;;14.32;8.15;;;;;;;;;;5021543;28;20056;-81
2021/12/12 08:42:26;;;;;;;13.77;7.75;;;;;;;;;;5022768;28;20520;-82
2021/12/12 08:44:53;;;;;;;16.73;8.77;;;;;;;;;;5036067;28;20527;-81
2021/12/12 08:47:21;;;;;;;15.48;8.82;;;;;;;;;;5014020;28;20492;-82
2021/12/12 08:49:48;;;;;;;15.75;7.97;;;;;;;;;;5030242;28;20042;-81
2021/12/12 08:52:18;;;;;;;12.90;7.85;;;;;;;;;;5021769;28;20022;-81
2021/12/12 08:54:45;;;;;;;12.38;7.45;;;;;;;;;;5037566;28;20026;-81
2021/12/12 08:57:20;;;;;;;12.00;7.10;;;;;;;;;;5038067;28;20030;-81
2021/12/12 08:59:48;;;;;;;11.25;6.28;;;;;;;;;;5037715;28;20561;-81
2021/12/12 09:02:16;;;;;;;13.52;7.40;;;;;;;;;;5039366;28;20033;-80
2021/12/12 09:04:45;;;;;;;12.80;6.70;;;;;;;;;;5037681;28;20506;-80
2021/12/12 09:07:17;;;;;;;12.05;6.05;;;;;;;;;;5038750;28;20050;-80
2021/12/12 09:10:03;;;;;;;11.07;6.07;;;;;;;;;;5035906;28;20053;-80
2021/12/12 09:12:32;;;;;;;10.98;5.75;;;;;;;;;;4991751;28;20080;-80
2021/12/12 09:24:14;;;;;;;12.85;6.38;;;;;;;;;;5021999;28;20037;-80
2021/12/12 09:26:45;;;;;;;10.20;5.82;;;;;;;;;;5035279;28;20393;-82
2021/12/12 09:29:20;;;;;;;13.23;6.45;;;;;;;;;;5023181;28;20018;-83
2021/12/12 09:31:50;;;;;;;11.95;6.75;;;;;;;;;;5031764;28;20041;-82
2021/12/12 09:34:28;;;;;;;12.15;7.18;;;;;;;;;;5018655;28;20030;-83
2021/12/12 09:36:59;;;;;;;12.48;7.10;;;;;;;;;;5035279;28;20109;-83
2021/12/12 09:39:25;;;;;;;13.13;6.85;;;;;;;;;;5033316;28;20082;-82
2021/12/12 09:41:59;;;;;;;11.77;6.15;;;;;;;;;;5036210;28;20038;-81
2021/12/12 09:44:44;;;;;;;13.10;7.30;;;;;;;;;;5038834;28;20017;-82
2021/12/12 09:47:28;;;;;;;12.38;6.72;;;;;;;;;;5038169;28;20022;-81
2021/12/12 09:53:01;;;;;;;10.27;5.88;;;;;;;;;;5020609;28;20044;-81
2021/12/12 09:55:29;;;;;;;13.98;7.07;;;;;;;;;;5044003;28;20108;-82
2021/12/12 09:57:55;;;;;;;12.05;7.05;;;;;;;;;;5040602;28;20046;-81
2021/12/12 10:00:45;;;;;;;11.27;6.22;;;;;;;;;;5034957;28;20041;-82
2021/12/12 10:03:39;;;;;;;11.93;6.22;;;;;;;;;;5014296;28;20060;-82
2021/12/12 10:06:17;;;;;;;10.05;6.07;;;;;;;;;;5027740;28;20538;-81
2021/12/12 10:08:57;;;;;;;10.70;5.57;;;;;;;;;;5028290;28;20025;-82
2021/12/12 10:11:31;;;;;;;11.30;6.47;;;;;;;;;;5031960;28;20025;-81
2021/12/12 10:14:11;;;;;;;10.38;5.30;;;;;;;;;;5034260;28;20021;-82
2021/12/12 10:16:56;;;;;;;9.25;4.90;;;;;;;;;;5018647;28;20057;-82
2021/12/12 10:19:48;;;;;;;10.15;5.32;;;;;;;;;;5034437;28;20030;-81
2021/12/12 10:22:14;;;;;;;10.73;5.67;;;;;;;;;;5012885;28;20074;-82
2021/12/12 10:24:47;;;;;;;12.07;6.43;;;;;;;;;;5031342;28;20682;-84
2021/12/12 10:27:19;;;;;;;8.98;5.05;;;;;;;;;;5015181;28;20057;-81
2021/12/12 10:29:58;;;;;;;9.30;4.78;;;;;;;;;;5031950;28;20083;-82
2021/12/12 10:32:26;;;;;;;10.05;5.68;;;;;;;;;;5032154;28;20034;-81
2021/12/12 10:34:58;;;;;;;9.68;6.15;;;;;;;;;;5032640;28;20021;-81
2021/12/12 10:37:27;;;;;;;9.32;5.32;;;;;;;;;;5031885;28;20037;-81
2021/12/12 10:40:06;;;;;;;11.07;6.15;;;;;;;;;;5032376;28;20037;-81
2021/12/12 10:42:35;;;;;;;10.55;5.82;;;;;;;;;;4995973;28;20094;-80
2021/12/12 10:45:13;;;;;;;11.60;6.53;;;;;;;;;;4995272;28;20077;-81
2021/12/12 10:47:53;;;;;;;10.68;6.47;;;;;;;;;;5009923;28;20026;-81
2021/12/12 10:50:31;;;;;;;10.40;6.88;;;;;;;;;;5031281;28;20084;-81
2021/12/12 10:53:00;;;;;;;10.00;6.90;;;;;;;;;;5031101;28;20018;-81
2021/12/12 10:55:49;;;;;;;10.40;6.15;;;;;;;;;;5014836;28;20034;-81
2021/12/12 10:58:18;;;;;;;11.20;6.50;;;;;;;;;;5015113;28;20038;-80
2021/12/12 11:00:53;;;;;;;11.13;6.70;;;;;;;;;;5030502;28;20014;-80
2021/12/12 11:03:26;;;;;;;10.50;6.70;;;;;;;;;;5014460;28;20056;-80
2021/12/12 11:05:59;;;;;;;13.23;7.55;;;;;;;;;;5013175;28;20026;-81
2021/12/12 11:08:37;;;;;;;11.18;6.88;;;;;;;;;;5031956;28;20058;-81
2021/12/12 11:11:13;;;;;;;13.25;7.30;;;;;;;;;;5018520;28;20026;-80
2021/12/12 11:13:45;;;;;;;11.07;7.88;;;;;;;;;;5018089;28;20562;-80
2021/12/12 11:16:11;;;;;;;10.63;6.97;;;;;;;;;;5017103;28;20053;-81
2021/12/12 11:18:43;;;;;;;11.48;6.63;;;;;;;;;;5032638;28;20573;-80
2021/12/12 11:21:09;;;;;;;10.40;6.95;;;;;;;;;;5017698;28;20034;-80
2021/12/12 11:23:38;;;;;;;11.02;7.35;;;;;;;;;;5032456;28;20120;-80
2021/12/12 11:26:06;;;;;;;11.95;7.50;;;;;;;;;;5016503;28;20529;-81
2021/12/12 11:28:38;;;;;;;11.85;7.50;;;;;;;;;;5032333;28;20116;-81
2021/12/12 11:31:13;;;;;;;11.95;7.95;;;;;;;;;;5032178;28;20029;-81
2021/12/12 11:33:42;;;;;;;10.73;6.97;;;;;;;;;;5016674;28;20018;-79
2021/12/12 11:36:12;;;;;;;10.68;7.03;;;;;;;;;;5031995;28;20570;-80
2021/12/12 11:38:50;;;;;;;13.05;8.05;;;;;;;;;;5016456;28;20022;-81
2021/12/12 11:41:22;;;;;;;10.25;6.85;;;;;;;;;;5016683;28;20057;-80
2021/12/12 11:43:55;;;;;;;11.07;6.90;;;;;;;;;;5016336;28;20045;-80
2021/12/12 11:46:39;;;;;;;12.57;7.85;;;;;;;;;;5016366;28;20490;-80
2021/12/12 11:49:11;;;;;;;11.35;6.90;;;;;;;;;;5016894;28;20034;-80
2021/12/12 11:51:46;;;;;;;12.00;7.57;;;;;;;;;;5031700;28;20057;-79
2021/12/12 11:54:32;;;;;;;9.90;6.78;;;;;;;;;;5016909;28;20026;-80
2021/12/12 11:57:11;;;;;;;10.88;6.53;;;;;;;;;;5016010;28;20025;-81
2021/12/12 11:59:41;;;;;;;11.82;6.90;;;;;;;;;;5016167;28;20100;-81
2021/12/12 12:02:25;;;;;;;10.75;6.90;;;;;;;;;;5016161;28;20479;-81
2021/12/12 12:05:00;;;;;;;11.48;6.85;;;;;;;;;;5015983;28;20391;-81
2021/12/12 12:07:45;;;;;;;11.27;7.45;;;;;;;;;;5016088;28;20448;-81
2021/12/12 12:10:14;;;;;;;11.00;7.13;;;;;;;;;;5015908;28;20398;-82
2021/12/12 12:12:52;;;;;;;10.00;6.95;;;;;;;;;;5016184;28;20382;-81
2021/12/12 12:15:37;;;;;;;11.15;6.88;;;;;;;;;;5015767;28;20048;-81
2021/12/12 12:18:22;;;;;;;11.25;7.07;;;;;;;;;;5030724;28;20029;-81
2021/12/12 12:20:57;;;;;;;11.52;7.05;;;;;;;;;;5031288;28;20697;-83
2021/12/12 12:24:10;;;;;;;11.00;6.57;;;;;;;;;;5031193;28;20115;-83
2021/12/12 12:26:52;;;;;;;9.60;6.00;;;;;;;;;;5015317;28;20102;-81
2021/12/12 12:29:27;;;;;;;11.85;7.05;;;;;;;;;;5031232;28;20037;-82
2021/12/12 12:32:12;;;;;;;10.20;7.13;;;;;;;;;;5015909;28;20024;-82
2021/12/12 12:34:51;;;;;;;11.27;6.93;;;;;;;;;;5030325;28;20041;-82
2021/12/12 12:37:36;;;;;;;12.40;7.40;;;;;;;;;;5001874;28;20121;-81
2021/12/12 12:40:25;;;;;;;9.98;6.05;;;;;;;;;;5030099;28;20022;-80
2021/12/12 12:43:10;;;;;;;12.35;7.60;;;;;;;;;;4987132;28;20053;-81
2021/12/12 12:45:45;;;;;;;11.18;7.45;;;;;;;;;;5015083;28;20033;-81
2021/12/12 12:48:14;;;;;;;12.70;7.22;;;;;;;;;;5015292;28;20029;-81
2021/12/12 12:50:58;;;;;;;12.80;7.90;;;;;;;;;;5015516;28;20048;-81
2021/12/12 12:53:30;;;;;;;13.50;8.30;;;;;;;;;;5010764;28;20063;-80
2021/12/12 12:55:56;;;;;;;13.90;8.50;;;;;;;;;;5003718;28;20411;-81
2021/12/12 12:58:41;;;;;;;12.57;8.70;;;;;;;;;;5029554;28;20049;-81
2021/12/12 13:01:27;;;;;;;15.30;8.65;;;;;;;;;;5029888;28;20068;-80
2021/12/12 13:04:12;;;;;;;13.90;7.65;;;;;;;;;;4983468;28;20108;-81
2021/12/12 13:06:53;;;;;;;14.50;8.65;;;;;;;;;;5014623;28;20032;-81
2021/12/12 13:09:22;;;;;;;14.80;8.38;;;;;;;;;;5029814;28;20037;-82
2021/12/12 13:12:07;;;;;;;12.60;8.23;;;;;;;;;;5029844;28;20026;-80
2021/12/12 13:14:49;;;;;;;14.18;8.20;;;;;;;;;;5014956;28;20026;-80
2021/12/12 13:17:20;;;;;;;14.93;7.57;;;;;;;;;;5014890;28;20036;-80
2021/12/12 13:19:50;;;;;;;13.18;7.25;;;;;;;;;;5030346;28;20025;-81
2021/12/12 13:22:29;;;;;;;12.77;7.63;;;;;;;;;;5030183;28;20018;-82
2021/12/12 13:25:30;;;;;;;13.82;8.38;;;;;;;;;;5029425;28;20120;-81
2021/12/12 13:28:15;;;;;;;12.43;7.25;;;;;;;;;;4953391;29;20034;-81
2021/12/12 13:31:01;;;;;;;13.45;7.88;;;;;;;;;;4953235;28;20027;-82
2021/12/12 13:33:33;;;;;;;14.45;7.95;;;;;;;;;;4953966;29;20118;-81
2021/12/12 13:36:05;;;;;;;13.98;7.32;;;;;;;;;;4953536;29;20054;-80
2021/12/12 13:38:33;;;;;;;13.50;7.90;;;;;;;;;;4953990;29;20034;-81
2021/12/12 13:41:02;;;;;;;13.07;8.65;;;;;;;;;;4953784;29;20118;-80
2021/12/12 13:43:34;;;;;;;12.90;7.45;;;;;;;;;;4953758;29;20122;-82
2021/12/12 13:46:09;;;;;;;14.70;8.48;;;;;;;;;;4953039;29;20027;-80
2021/12/12 13:48:53;;;;;;;15.05;9.02;;;;;;;;;;4953338;29;20567;-82
2021/12/12 13:51:48;;;;;;;14.30;8.55;;;;;;;;;;4953443;29;20031;-81
2021/12/12 13:54:21;;;;;;;11.85;7.47;;;;;;;;;;4900852;29;20036;-81
2021/12/12 13:56:47;;;;;;;;;;;;;;;;;;4934950;29;20024;-81
2021/12/12 13:59:31;;;;;;;12.27;7.30;;;;;;;;;;4945925;29;20403;-81
2021/12/12 14:02:00;;;;;;;12.57;7.15;;;;;;;;;;4983958;28;20606;-80
2021/12/12 14:04:45;;;;;;;13.40;7.15;;;;;;;;;;5013683;28;20041;-80
2021/12/12 14:07:12;;;;;;;12.00;7.00;;;;;;;;;;5013455;28;20032;-81
2021/12/12 14:09:38;;;;;;;12.98;7.75;;;;;;;;;;5028971;28;20026;-79
2021/12/12 14:12:05;;;;;;;13.48;7.55;;;;;;;;;;5028744;28;20053;-80
2021/12/12 14:14:31;;;;;;;13.07;7.50;;;;;;;;;;5013162;28;20018;-80
2021/12/12 14:17:00;;;;;;;14.63;8.57;;;;;;;;;;5013381;28;20030;-80
2021/12/12 14:19:38;;;;;;;13.13;7.30;;;;;;;;;;5013654;28;20368;-80
2021/12/12 14:22:05;;;;;;;14.45;7.32;;;;;;;;;;5013044;28;20254;-80
2021/12/12 14:24:32;;;;;;;12.00;6.57;;;;;;;;;;5013646;28;20519;-80
2021/12/12 14:27:00;;;;;;;13.40;7.68;;;;;;;;;;5013465;28;20337;-79
2021/12/12 14:29:27;;;;;;;11.15;6.63;;;;;;;;;;5013192;28;20080;-80
2021/12/12 14:32:00;;;;;;;12.05;7.18;;;;;;;;;;5013182;28;20030;-80
2021/12/12 14:34:47;;;;;;;13.35;7.05;;;;;;;;;;5013530;28;20018;-80
2021/12/12 14:37:19;;;;;;;14.52;8.32;;;;;;;;;;5012502;28;20061;-80
2021/12/12 14:39:47;;;;;;;13.70;7.47;;;;;;;;;;5012997;28;20034;-79
2021/12/12 14:42:24;;;;;;;13.82;7.35;;;;;;;;;;5026844;28;20073;-79
2021/12/12 14:44:53;;;;;;;12.27;7.20;;;;;;;;;;5013083;28;20030;-80
2021/12/12 14:47:23;;;;;;;14.57;7.95;;;;;;;;;;5027973;28;20040;-79
2021/12/12 14:49:53;;;;;;;14.30;7.35;;;;;;;;;;5027999;28;20022;-80
2021/12/12 14:52:22;;;;;;;14.75;8.18;;;;;;;;;;5027172;28;20518;-80
2021/12/12 14:54:51;;;;;;;13.32;7.32;;;;;;;;;;5028256;28;20029;-79
2021/12/12 14:57:19;;;;;;;11.73;6.75;;;;;;;;;;5012774;28;20021;-80
2021/12/12 14:59:47;;;;;;;13.35;7.28;;;;;;;;;;5012748;28;20026;-80
2021/12/12 15:02:15;;;;;;;12.02;7.00;;;;;;;;;;5028014;28;21692;-80
2021/12/12 15:04:49;;;;;;;14.20;7.47;;;;;;;;;;5029258;28;20045;-80
2021/12/12 15:07:17;;;;;;;14.48;7.63;;;;;;;;;;5028531;28;20052;-80
2021/12/12 15:09:52;;;;;;;14.48;7.85;;;;;;;;;;5013344;28;20030;-80
2021/12/12 15:12:23;;;;;;;10.68;6.65;;;;;;;;;;5027870;28;20029;-79
2021/12/12 15:14:53;;;;;;;14.43;7.32;;;;;;;;;;5028024;28;20084;-80
2021/12/12 15:17:22;;;;;;;13.30;7.30;;;;;;;;;;5028407;28;20088;-79
2021/12/12 15:19:50;;;;;;;13.50;6.90;;;;;;;;;;5012569;28;20026;-80
2021/12/12 15:22:20;;;;;;;14.75;7.55;;;;;;;;;;5012842;28;20063;-80
2021/12/12 15:24:49;;;;;;;12.30;6.97;;;;;;;;;;5028472;28;20108;-81
2021/12/12 15:27:20;;;;;;;13.10;7.15;;;;;;;;;;5028155;28;20026;-80
2021/12/12 15:29:46;;;;;;;13.48;7.32;;;;;;;;;;5012718;28;20034;-80
2021/12/12 15:32:15;;;;;;;12.40;7.22;;;;;;;;;;5013389;28;20072;-79
2021/12/12 15:34:43;;;;;;;14.70;7.38;;;;;;;;;;5012904;28;20100;-80
2021/12/12 15:37:13;;;;;;;11.98;6.97;;;;;;;;;;5012730;28;20022;-80
2021/12/12 15:39:48;;;;;;;12.82;7.57;;;;;;;;;;5027937;28;20026;-81
2021/12/12 15:42:15;;;;;;;13.18;7.00;;;;;;;;;;5012745;28;20049;-80
2021/12/12 15:44:44;;;;;;;13.02;6.95;;;;;;;;;;5012353;28;20022;-80
2021/12/12 15:47:13;;;;;;;12.95;6.97;;;;;;;;;;5028265;28;20018;-79
2021/12/12 15:49:48;;;;;;;11.00;6.68;;;;;;;;;;5012852;28;20024;-80
2021/12/12 15:52:17;;;;;;;12.98;6.78;;;;;;;;;;5028090;28;20021;-80
2021/12/12 15:54:44;;;;;;;13.75;6.40;;;;;;;;;;5030884;28;20446;-80
2021/12/12 15:57:12;;;;;;;13.35;6.85;;;;;;;;;;5017519;28;20014;-79
2021/12/12 15:59:44;;;;;;;12.02;6.40;;;;;;;;;;5031614;28;20026;-80
2021/12/12 16:02:12;;;;;;;13.32;7.10;;;;;;;;;;5018493;28;20060;-79
2021/12/12 16:04:41;;;;;;;12.60;6.75;;;;;;;;;;5017261;28;20033;-80
2021/12/12 16:07:11;;;;;;;12.75;6.68;;;;;;;;;;5033145;28;20022;-81
2021/12/12 16:09:39;;;;;;;12.98;6.88;;;;;;;;;;5016167;28;20118;-80
2021/12/12 16:12:07;;;;;;;13.20;7.32;;;;;;;;;;5016404;28;20018;-80
2021/12/12 16:20:24;;;;;;;13.10;6.72;;;;;;;;;;5015461;28;19916;-80
2021/12/12 16:35:04;;;;;;;;;;;;;;;;;;5027042;28;20033;-80
2021/12/12 16:46:26;;;;;;;14.40;8.55;;;;;;;;;;4994486;28;20057;-81
2021/12/12 16:48:52;;;;;;;16.50;8.52;;;;;;;;;;5012517;28;20030;-81
2021/12/12 16:51:28;;;;;;;16.00;9.63;;;;;;;;;;5015680;28;20034;-81
2021/12/12 16:56:57;;;;;;;;;;;;;;;;;;5016407;28;20037;-81
2021/12/12 16:59:25;;;;;;;14.75;9.25;;;;;;;;;;5029512;28;20290;-80
2021/12/12 17:01:51;;;;;;;16.35;9.48;;;;;;;;;;5015230;28;20029;-80
2021/12/12 17:04:19;;;;;;;15.70;9.82;;;;;;;;;;5015080;28;20387;-81
2021/12/12 17:06:48;;;;;;;19.67;10.32;;;;;;;;;;5014410;28;20522;-80